Time;durP1;ratioP1;P1;durP2;ratioP2;P2;SDS_P1;SDS_P2;PMS_P1;PMS_P2;Temp;Humidity;BMP_temperature;BMP_pressure;BME280_temperature;BME280_humidity;BME280_pressure;Samples;Min_cycle;Max_cycle;Signal;HPM_P1;HPM_P2
2022/09/01 00:01:45;;;;;;;1.67;1.10;;;13.60;99.90;;;;;;5008214;28;20962;-53
2022/09/01 00:04:15;;;;;;;5.37;1.50;;;13.60;99.90;;;;;;5009570;28;20860;-52
2022/09/01 00:06:43;;;;;;;1.17;1.07;;;13.50;97.60;;;;;;5010415;28;20460;-52
2022/09/01 00:09:13;;;;;;;10.23;1.37;;;13.50;99.00;;;;;;5007133;28;20537;-52
2022/09/01 00:11:42;;;;;;;3.67;1.37;;;13.50;95.20;;;;;;5008915;28;20946;-53
2022/09/01 00:14:10;;;;;;;1.60;1.40;;;13.50;95.00;;;;;;5008962;28;20517;-52
2022/09/01 00:16:38;;;;;;;10.30;1.37;;;13.50;91.20;;;;;;5008443;28;20463;-52
2022/09/01 00:19:06;;;;;;;3.27;1.17;;;13.50;93.90;;;;;;5007615;28;20466;-53
2022/09/01 00:21:38;;;;;;;11.30;1.57;;;13.50;94.50;;;;;;5010106;28;20459;-52
2022/09/01 00:24:06;;;;;;;3.17;1.27;;;13.50;93.50;;;;;;5008236;28;20490;-52
2022/09/01 00:26:33;;;;;;;1.33;1.00;;;13.50;95.10;;;;;;5006219;28;20503;-52
2022/09/01 00:28:59;;;;;;;3.10;1.10;;;13.50;94.40;;;;;;5007511;28;20463;-53
2022/09/01 00:31:27;;;;;;;1.10;1.00;;;13.50;96.40;;;;;;5007749;28;20463;-52
2022/09/01 00:33:54;;;;;;;2.27;1.07;;;13.50;95.40;;;;;;5007745;28;20463;-52
2022/09/01 00:36:22;;;;;;;2.10;1.30;;;13.50;97.50;;;;;;5006232;28;20479;-53
2022/09/01 00:38:50;;;;;;;2.90;1.23;;;13.60;98.40;;;;;;5004300;28;20478;-53
2022/09/01 00:41:18;;;;;;;1.90;1.20;;;13.60;98.10;;;;;;5006544;28;20510;-52
2022/09/01 00:43:47;;;;;;;1.00;0.80;;;13.60;97.30;;;;;;5009001;28;20494;-52
2022/09/01 00:46:16;;;;;;;1.53;0.83;;;13.60;98.80;;;;;;5009204;28;20484;-52
2022/09/01 00:48:43;;;;;;;2.47;1.03;;;13.60;98.40;;;;;;5008836;28;20542;-50
2022/09/01 00:51:12;;;;;;;1.23;1.13;;;13.60;99.50;;;;;;5007567;28;20467;-52
2022/09/01 00:53:42;;;;;;;0.80;0.80;;;13.60;99.30;;;;;;5004733;28;20518;-52
2022/09/01 00:56:09;;;;;;;4.93;1.20;;;13.60;99.90;;;;;;5006635;28;20475;-52
2022/09/01 00:58:37;;;;;;;1.37;1.13;;;13.60;99.90;;;;;;5007646;28;20471;-52
2022/09/01 01:01:05;;;;;;;2.50;0.80;;;13.60;99.90;;;;;;5007855;28;20471;-51
2022/09/01 01:03:31;;;;;;;0.90;0.90;;;13.60;99.90;;;;;;5010191;28;20475;-52
2022/09/01 01:06:02;;;;;;;2.03;1.20;;;13.60;99.90;;;;;;5010722;28;20542;-52
2022/09/01 01:08:32;;;;;;;1.07;1.07;;;13.60;99.90;;;;;;5010829;28;20470;-52
2022/09/01 01:11:02;;;;;;;1.17;1.07;;;13.60;99.90;;;;;;5010258;28;20538;-53
2022/09/01 01:13:35;;;;;;;1.23;0.97;;;13.60;99.90;;;;;;5012707;28;20456;-52
2022/09/01 01:16:07;;;;;;;2.63;0.90;;;13.60;99.90;;;;;;5012398;28;20929;-52
2022/09/01 01:18:33;;;;;;;1.20;1.10;;;13.60;99.90;;;;;;5012313;28;20893;-52
2022/09/01 01:23:53;;;;;;;1.10;1.00;;;13.60;99.90;;;;;;5009564;28;20478;-52
2022/09/01 01:26:20;;;;;;;5.17;1.50;;;13.60;99.90;;;;;;5008878;28;20483;-51
2022/09/01 01:28:47;;;;;;;3.07;1.07;;;13.60;99.90;;;;;;5011038;28;20518;-51
2022/09/01 01:31:17;;;;;;;1.20;1.10;;;13.60;99.90;;;;;;5010335;28;20546;-52
2022/09/01 01:33:46;;;;;;;2.63;1.20;;;13.60;99.90;;;;;;5006644;28;20460;-51
2022/09/01 01:36:18;;;;;;;1.27;1.17;;;13.60;99.90;;;;;;5015586;28;20564;-53
2022/09/01 01:38:47;;;;;;;1.53;0.77;;;13.60;99.90;;;;;;5007717;28;20502;-52
2022/09/01 01:41:16;;;;;;;2.40;1.10;;;13.60;99.90;;;;;;5011823;28;20514;-52
2022/09/01 01:43:44;;;;;;;3.87;1.00;;;13.60;99.90;;;;;;5009842;28;20598;-52
2022/09/01 01:46:13;;;;;;;1.30;0.90;;;13.50;99.90;;;;;;5012186;28;20511;-52
2022/09/01 01:48:42;;;;;;;4.50;1.70;;;13.50;99.90;;;;;;5012223;28;20877;-51
2022/09/01 01:51:10;;;;;;;1.40;1.00;;;13.50;99.90;;;;;;5009139;28;20464;-52
2022/09/01 01:53:37;;;;;;;1.80;0.93;;;13.40;99.10;;;;;;5008284;28;20535;-51
2022/09/01 01:56:05;;;;;;;1.17;1.10;;;13.30;97.60;;;;;;5006448;28;20571;-52
2022/09/01 01:58:33;;;;;;;5.67;1.80;;;13.30;95.50;;;;;;5007736;28;20459;-52
2022/09/01 02:01:02;;;;;;;1.43;1.20;;;13.20;93.80;;;;;;5008235;28;20455;-51
2022/09/01 02:03:37;;;;;;;0.80;0.80;;;13.10;89.50;;;;;;5012537;28;20836;-53
2022/09/01 02:06:06;;;;;;;2.90;0.97;;;13.10;86.50;;;;;;5009951;28;21044;-52
2022/09/01 02:08:34;;;;;;;1.67;0.90;;;13.10;82.90;;;;;;5006361;28;20467;-52
2022/09/01 02:11:02;;;;;;;1.63;1.20;;;13.00;80.80;;;;;;5010309;28;20462;-52
2022/09/01 02:13:30;;;;;;;1.03;0.90;;;13.00;81.20;;;;;;5012869;28;20490;-51
2022/09/01 02:15:59;;;;;;;1.17;1.07;;;12.90;78.20;;;;;;5010191;28;20488;-53
2022/09/01 02:18:33;;;;;;;1.23;1.00;;;12.90;74.00;;;;;;5011370;28;20545;-52
2022/09/01 02:20:59;;;;;;;2.83;1.00;;;12.80;74.70;;;;;;5002836;28;20466;-53
2022/09/01 02:23:26;;;;;;;2.30;1.10;;;12.80;74.00;;;;;;5011486;28;20483;-52
2022/09/01 02:25:55;;;;;;;1.80;1.30;;;12.70;70.70;;;;;;5010695;28;20565;-52
2022/09/01 02:28:23;;;;;;;1.30;1.20;;;12.70;68.50;;;;;;5006578;28;20550;-53
2022/09/01 02:30:53;;;;;;;1.37;0.90;;;12.60;60.60;;;;;;5009313;28;20490;-52
2022/09/01 02:33:22;;;;;;;5.97;0.90;;;12.50;62.50;;;;;;5011300;28;20462;-52
2022/09/01 02:35:52;;;;;;;0.80;0.80;;;12.50;58.70;;;;;;5013872;28;20483;-52
2022/09/01 02:38:19;;;;;;;3.07;1.20;;;12.40;53.00;;;;;;5011017;28;20463;-52
2022/09/01 02:40:47;;;;;;;3.03;1.00;;;12.30;53.50;;;;;;5014139;28;20467;-52
2022/09/01 02:43:19;;;;;;;1.17;1.07;;;12.30;51.40;;;;;;5009035;28;20488;-52
2022/09/01 02:45:45;;;;;;;1.10;1.00;;;12.20;48.60;;;;;;5010562;28;20558;-52
2022/09/01 02:48:12;;;;;;;1.47;1.10;;;12.20;44.70;;;;;;5010113;28;20455;-53
2022/09/01 02:50:41;;;;;;;2.93;1.60;;;12.20;44.60;;;;;;5010283;28;20459;-51
2022/09/01 02:53:10;;;;;;;3.70;1.50;;;12.10;44.00;;;;;;5008555;28;20801;-51
2022/09/01 02:55:38;;;;;;;1.20;1.00;;;12.00;38.70;;;;;;5008474;28;20905;-52
2022/09/01 02:58:07;;;;;;;1.40;1.30;;;12.00;35.90;;;;;;5009739;28;20545;-51
2022/09/01 03:00:38;;;;;;;1.43;0.80;;;11.90;32.10;;;;;;5009364;28;20564;-51
2022/09/01 03:03:06;;;;;;;1.17;1.07;;;11.90;32.00;;;;;;5006476;28;20522;-50
2022/09/01 03:05:38;;;;;;;8.03;1.40;;;11.80;32.90;;;;;;5010358;28;20487;-50
2022/09/01 03:08:09;;;;;;;3.03;1.10;;;11.80;27.10;;;;;;5005729;28;20522;-50
2022/09/01 03:10:40;;;;;;;1.00;0.90;;;11.70;25.30;;;;;;5010453;28;20463;-50
2022/09/01 03:13:10;;;;;;;1.30;1.20;;;11.70;23.90;;;;;;5008023;28;20466;-50
2022/09/01 03:15:37;;;;;;;2.70;1.40;;;11.70;27.40;;;;;;5010745;28;20516;-50
2022/09/01 03:18:06;;;;;;;1.67;1.00;;;11.70;24.00;;;;;;5011117;28;20455;-51
2022/09/01 03:20:36;;;;;;;2.40;1.10;;;11.60;20.50;;;;;;5011137;28;20463;-50
2022/09/01 03:23:05;;;;;;;4.43;1.43;;;11.60;21.00;;;;;;5008615;28;20460;-50
2022/09/01 03:25:32;;;;;;;1.20;1.10;;;11.60;22.10;;;;;;5007667;28;20500;-51
2022/09/01 03:28:02;;;;;;;1.23;1.10;;;11.50;84.00;;;;;;5017760;28;20463;-50
2022/09/01 03:30:29;;;;;;;3.50;1.00;;;11.50;98.70;;;;;;5009181;28;20468;-51
2022/09/01 03:32:56;;;;;;;2.30;0.90;;;11.40;96.10;;;;;;5010270;28;20858;-51
2022/09/01 03:35:23;;;;;;;1.37;1.10;;;11.50;99.90;;;;;;5009900;28;20487;-50
2022/09/01 03:37:49;;;;;;;1.10;1.10;;;11.40;99.90;;;;;;5009775;28;20470;-50
2022/09/01 03:40:17;;;;;;;1.90;1.13;;;11.40;99.90;;;;;;5005786;28;20555;-50
2022/09/01 03:42:44;;;;;;;2.50;1.40;;;11.40;99.90;;;;;;5010276;28;20472;-53
2022/09/01 03:45:14;;;;;;;1.20;0.80;;;11.40;99.90;;;;;;5008409;28;20483;-52
2022/09/01 03:47:42;;;;;;;1.63;1.10;;;11.40;99.90;;;;;;5011179;28;20502;-53
2022/09/01 03:50:16;;;;;;;1.43;1.00;;;11.40;99.90;;;;;;5009084;28;20486;-54
2022/09/01 03:52:44;;;;;;;1.00;0.83;;;11.30;99.90;;;;;;5008002;28;20458;-54
2022/09/01 03:55:11;;;;;;;2.20;1.20;;;11.20;99.90;;;;;;5009567;28;20509;-52
2022/09/01 03:57:41;;;;;;;1.07;1.07;;;11.20;99.90;;;;;;5008580;28;20475;-50
2022/09/01 04:00:21;;;;;;;0.90;0.90;;;11.20;99.90;;;;;;5009497;28;20463;-50
2022/09/01 04:02:51;;;;;;;1.20;0.90;;;11.20;99.90;;;;;;5009780;28;20892;-50
2022/09/01 04:05:21;;;;;;;0.93;0.93;;;11.10;99.90;;;;;;5017742;28;20487;-50
2022/09/01 04:07:49;;;;;;;5.23;1.30;;;11.10;99.90;;;;;;5009843;28;20467;-50
2022/09/01 04:10:16;;;;;;;2.20;1.00;;;11.10;99.90;;;;;;5008849;28;20485;-50
2022/09/01 04:12:43;;;;;;;1.87;1.30;;;11.10;99.90;;;;;;5008655;28;20569;-51
2022/09/01 04:15:11;;;;;;;1.40;1.30;;;11.10;99.90;;;;;;5008202;28;20569;-51
2022/09/01 04:20:23;;;;;;;9.20;1.00;;;11.10;99.90;;;;;;5007483;28;20526;-51
2022/09/01 04:22:51;;;;;;;4.00;2.47;;;11.20;99.90;;;;;;5009867;28;20460;-51
2022/09/01 04:25:22;;;;;;;3.20;1.10;;;11.10;99.90;;;;;;5006710;28;20495;-51
2022/09/01 04:27:49;;;;;;;5.70;1.20;;;11.10;99.90;;;;;;5009858;28;20554;-54
2022/09/01 04:30:16;;;;;;;1.80;1.23;;;11.10;99.90;;;;;;5003875;28;20460;-49
2022/09/01 04:32:42;;;;;;;1.20;1.03;;;11.10;99.90;;;;;;5009272;28;20463;-50
2022/09/01 04:35:15;;;;;;;4.47;1.30;;;11.20;99.90;;;;;;5006096;28;20488;-51
2022/09/01 04:37:45;;;;;;;1.00;0.90;;;11.20;99.90;;;;;;5011383;28;20488;-50
2022/09/01 04:40:13;;;;;;;2.03;1.60;;;11.20;99.90;;;;;;5008269;28;20498;-51
2022/09/01 04:42:41;;;;;;;5.83;1.50;;;11.20;99.90;;;;;;5012437;28;20468;-51
2022/09/01 04:45:11;;;;;;;3.33;1.20;;;11.20;99.90;;;;;;5010564;28;20846;-50
2022/09/01 04:47:40;;;;;;;3.23;1.60;;;11.20;99.90;;;;;;5010723;28;20965;-51
2022/09/01 04:50:12;;;;;;;2.10;1.90;;;11.20;99.90;;;;;;5011903;28;20463;-51
2022/09/01 04:52:40;;;;;;;1.77;1.57;;;11.30;99.90;;;;;;5013342;28;20478;-51
2022/09/01 04:55:16;;;;;;;1.73;1.10;;;11.20;99.90;;;;;;5011205;28;20483;-51
2022/09/01 04:57:46;;;;;;;1.57;1.47;;;11.30;99.90;;;;;;5014832;28;20509;-50
2022/09/01 05:00:21;;;;;;;1.60;1.50;;;11.30;99.90;;;;;;5009883;28;20837;-50
2022/09/01 05:02:48;;;;;;;3.13;1.60;;;11.30;99.90;;;;;;5011958;28;20466;-52
2022/09/01 05:05:15;;;;;;;1.80;1.70;;;11.30;99.90;;;;;;5011378;28;20484;-51
2022/09/01 05:07:42;;;;;;;2.93;2.07;;;11.30;99.90;;;;;;5012296;28;20467;-51
2022/09/01 05:10:11;;;;;;;2.93;2.10;;;11.30;99.90;;;;;;5006231;28;20459;-51
2022/09/01 05:12:38;;;;;;;2.10;1.57;;;11.30;99.90;;;;;;5015457;28;20463;-51
2022/09/01 05:15:08;;;;;;;2.40;1.97;;;11.30;99.90;;;;;;5015706;28;20480;-50
2022/09/01 05:17:37;;;;;;;3.20;1.80;;;11.40;99.90;;;;;;5011834;28;20474;-50
2022/09/01 05:20:05;;;;;;;3.53;1.90;;;11.40;99.90;;;;;;5008982;28;20460;-51
2022/09/01 05:22:32;;;;;;;1.77;1.67;;;11.40;99.90;;;;;;5008480;28;21024;-51
2022/09/01 05:25:11;;;;;;;2.10;1.70;;;11.50;99.90;;;;;;5031648;22;20562;-49
2022/09/01 05:27:41;;;;;;;2.23;2.00;;;11.50;99.90;;;;;;5011504;28;20460;-49
2022/09/01 05:30:09;;;;;;;1.60;1.50;;;11.50;99.90;;;;;;5010652;28;20463;-50
2022/09/01 05:32:38;;;;;;;5.90;1.80;;;11.60;99.90;;;;;;5003154;28;21023;-54
2022/09/01 05:35:07;;;;;;;2.07;1.93;;;11.60;99.90;;;;;;5006363;28;20481;-54
2022/09/01 05:37:36;;;;;;;1.67;1.57;;;11.70;99.90;;;;;;4990625;28;20469;-54
2022/09/01 05:40:04;;;;;;;8.00;2.10;;;11.70;99.90;;;;;;4987425;28;20929;-53
2022/09/01 05:42:31;;;;;;;2.73;1.80;;;11.80;99.90;;;;;;4983903;28;20973;-53
2022/09/01 05:45:00;;;;;;;3.27;1.73;;;11.90;99.90;;;;;;4985233;28;20496;-53
2022/09/01 05:47:27;;;;;;;2.80;1.70;;;12.00;99.90;;;;;;4989349;28;20836;-54
2022/09/01 05:49:54;;;;;;;1.83;1.70;;;12.00;99.90;;;;;;4985197;28;20468;-53
2022/09/01 05:52:24;;;;;;;1.60;1.43;;;12.10;99.90;;;;;;4977615;28;20457;-53
2022/09/01 05:54:51;;;;;;;2.23;1.63;;;12.10;99.90;;;;;;4983598;28;20480;-54
2022/09/01 05:57:18;;;;;;;1.67;1.50;;;12.20;99.90;;;;;;4982242;28;20889;-53
2022/09/01 05:59:45;;;;;;;1.33;1.23;;;12.30;99.90;;;;;;4989049;28;20499;-54
2022/09/01 06:02:14;;;;;;;1.70;1.60;;;12.40;99.90;;;;;;4991705;28;20972;-53
2022/09/01 06:04:42;;;;;;;1.83;1.73;;;12.50;99.90;;;;;;4986139;28;20492;-53
2022/09/01 06:07:13;;;;;;;4.00;1.77;;;12.60;99.90;;;;;;4987521;28;20472;-53
2022/09/01 06:09:41;;;;;;;2.03;1.53;;;12.70;99.90;;;;;;4989796;28;20519;-54
2022/09/01 06:12:16;;;;;;;1.73;1.63;;;12.80;99.90;;;;;;4992105;28;20465;-53
2022/09/01 06:14:42;;;;;;;2.30;1.53;;;12.90;99.90;;;;;;4984571;28;20492;-52
2022/09/01 06:17:10;;;;;;;1.63;1.53;;;13.00;99.90;;;;;;4984113;28;20469;-53
2022/09/01 06:19:39;;;;;;;3.50;1.40;;;13.00;99.90;;;;;;4985320;28;20527;-54
2022/09/01 06:22:06;;;;;;;2.20;1.60;;;13.00;99.90;;;;;;4985708;28;20462;-53
2022/09/01 06:24:33;;;;;;;1.23;1.23;;;13.10;89.10;;;;;;4986959;28;20481;-54
2022/09/01 06:26:59;;;;;;;3.07;1.30;;;13.20;24.00;;;;;;4989386;28;20974;-54
2022/09/01 06:29:27;;;;;;;1.43;1.33;;;13.20;24.30;;;;;;4992104;28;20460;-52
2022/09/01 06:31:53;;;;;;;1.83;1.33;;;13.30;23.00;;;;;;4982645;28;20491;-53
2022/09/01 06:34:21;;;;;;;1.47;1.37;;;13.30;27.50;;;;;;4982420;28;20465;-53
2022/09/01 06:36:50;;;;;;;1.93;1.53;;;13.40;31.90;;;;;;4979705;28;20465;-54
2022/09/01 06:39:19;;;;;;;2.40;1.20;;;13.40;39.40;;;;;;4987862;28;20464;-52
2022/09/01 06:41:48;;;;;;;1.43;1.33;;;13.50;38.60;;;;;;4989384;28;20831;-54
2022/09/01 06:44:21;;;;;;;2.20;1.80;;;13.50;41.00;;;;;;4985694;28;20473;-53
2022/09/01 06:46:47;;;;;;;3.73;1.13;;;13.60;42.30;;;;;;4982649;28;20468;-53
2022/09/01 06:49:14;;;;;;;3.10;1.43;;;13.70;45.60;;;;;;4996560;28;20469;-53
2022/09/01 06:51:41;;;;;;;3.23;1.60;;;13.80;47.20;;;;;;4991496;28;20464;-53
2022/09/01 06:54:13;;;;;;;2.80;1.40;;;13.90;54.40;;;;;;4996119;28;20721;-53
2022/09/01 06:56:40;;;;;;;2.00;1.80;;;14.00;64.40;;;;;;4990147;28;21002;-53
2022/09/01 06:59:06;;;;;;;1.93;1.80;;;14.10;67.80;;;;;;4990682;28;20449;-54
2022/09/01 07:01:34;;;;;;;2.27;1.40;;;14.20;73.70;;;;;;4986622;28;20468;-52
2022/09/01 07:04:01;;;;;;;2.00;1.30;;;14.30;80.50;;;;;;4990726;28;20556;-52
2022/09/01 07:06:28;;;;;;;2.73;1.57;;;14.30;85.30;;;;;;4988095;28;20484;-53
2022/09/01 07:08:55;;;;;;;1.30;1.07;;;14.50;86.50;;;;;;4990139;28;20527;-53
2022/09/01 07:11:26;;;;;;;2.30;1.77;;;14.60;89.60;;;;;;4987905;28;20815;-54
2022/09/01 07:13:56;;;;;;;5.40;1.77;;;14.70;99.90;;;;;;4984454;28;21080;-54
2022/09/01 07:16:24;;;;;;;1.63;1.23;;;14.80;99.90;;;;;;4991901;28;21021;-53
2022/09/01 07:18:51;;;;;;;2.83;1.70;;;15.00;99.90;;;;;;4992724;28;20502;-54
2022/09/01 07:21:18;;;;;;;3.43;1.30;;;15.10;99.90;;;;;;4989009;28;20946;-53
2022/09/01 07:23:45;;;;;;;1.30;1.20;;;15.20;99.90;;;;;;4979900;28;20461;-53
2022/09/01 07:26:16;;;;;;;2.90;1.80;;;15.30;99.90;;;;;;4996060;28;20492;-54
2022/09/01 07:28:45;;;;;;;3.03;1.63;;;15.40;99.90;;;;;;4988417;28;20465;-53
2022/09/01 07:31:20;;;;;;;1.53;1.43;;;15.50;99.90;;;;;;4987222;28;20486;-54
2022/09/01 07:33:47;;;;;;;1.30;1.20;;;15.50;99.90;;;;;;4986918;28;20474;-53
2022/09/01 07:36:14;;;;;;;2.37;2.13;;;15.60;99.90;;;;;;4982193;28;20535;-55
2022/09/01 07:38:41;;;;;;;3.43;2.10;;;15.70;99.90;;;;;;4984373;28;20886;-55
2022/09/01 07:41:11;;;;;;;1.47;1.27;;;15.80;99.90;;;;;;4985459;28;20886;-53
2022/09/01 07:43:40;;;;;;;2.30;1.20;;;15.90;99.90;;;;;;4985464;28;20839;-54
2022/09/01 07:46:09;;;;;;;3.67;1.30;;;16.00;99.90;;;;;;4987262;28;20534;-55
2022/09/01 07:48:36;;;;;;;3.67;1.30;;;16.20;99.90;;;;;;4989094;28;20470;-54
2022/09/01 07:51:03;;;;;;;1.63;1.27;;;16.30;99.90;;;;;;4984004;28;20461;-54
2022/09/01 07:53:33;;;;;;;1.20;1.03;;;16.40;99.90;;;;;;4994453;28;20510;-53
2022/09/01 07:56:08;;;;;;;2.30;1.37;;;16.50;99.90;;;;;;4992046;28;21001;-55
2022/09/01 07:58:37;;;;;;;3.83;1.20;;;16.50;99.90;;;;;;4992786;28;20464;-53
2022/09/01 08:01:08;;;;;;;3.23;1.30;;;16.60;99.90;;;;;;4982993;28;20456;-54
2022/09/01 08:03:35;;;;;;;1.10;1.00;;;16.70;99.90;;;;;;4989553;28;20467;-54
2022/09/01 08:06:05;;;;;;;1.47;1.20;;;16.80;99.90;;;;;;4990138;28;20495;-53
2022/09/01 08:08:32;;;;;;;1.47;1.00;;;16.80;99.90;;;;;;4989521;28;20464;-54
2022/09/01 08:10:58;;;;;;;1.87;1.30;;;16.90;99.90;;;;;;4987283;28;20526;-53
2022/09/01 08:13:25;;;;;;;2.17;1.40;;;17.30;99.90;;;;;;4990289;28;20460;-55
2022/09/01 08:15:52;;;;;;;1.63;1.27;;;17.70;22.80;;;;;;4990110;28;20512;-54
2022/09/01 08:18:20;;;;;;;1.20;1.10;;;17.90;40.50;;;;;;4992046;28;20470;-53
2022/09/01 08:20:47;;;;;;;0.90;0.90;;;17.90;46.70;;;;;;4997974;28;20794;-53
2022/09/01 08:23:17;;;;;;;3.17;1.07;;;17.90;40.70;;;;;;4996643;28;20464;-54
2022/09/01 08:25:45;;;;;;;1.20;1.10;;;17.80;41.70;;;;;;4993211;28;20488;-53
2022/09/01 08:28:12;;;;;;;0.97;0.90;;;17.80;51.80;;;;;;4993874;28;20468;-53
2022/09/01 08:30:41;;;;;;;1.30;1.20;;;17.70;40.60;;;;;;4993913;28;20468;-55
2022/09/01 08:33:10;;;;;;;3.43;0.93;;;17.80;32.50;;;;;;4988888;28;20834;-54
2022/09/01 08:35:39;;;;;;;2.13;1.00;;;17.80;48.30;;;;;;4996535;28;20476;-54
2022/09/01 08:38:06;;;;;;;1.17;0.90;;;17.90;58.40;;;;;;5003957;28;20461;-54
2022/09/01 08:40:33;;;;;;;3.33;1.10;;;17.90;62.20;;;;;;4995336;28;20495;-53
2022/09/01 08:43:11;;;;;;;0.80;0.80;;;17.90;72.70;;;;;;4993523;28;20464;-53
2022/09/01 08:45:44;;;;;;;2.03;0.87;;;18.00;72.60;;;;;;4993655;28;20524;-53
2022/09/01 08:48:15;;;;;;;1.00;0.87;;;18.10;78.10;;;;;;4991305;28;20458;-53
2022/09/01 08:50:45;;;;;;;2.10;1.20;;;18.20;91.90;;;;;;4997632;28;20526;-60
2022/09/01 08:53:22;;;;;;;0.87;0.87;;;18.30;88.50;;;;;;4994558;28;20456;-53
2022/09/01 08:55:54;;;;;;;0.70;0.70;;;18.40;78.90;;;;;;4993043;28;20481;-53
2022/09/01 08:58:21;;;;;;;2.30;0.70;;;18.50;96.80;;;;;;4996766;28;20943;-55
2022/09/01 09:00:56;;;;;;;2.80;0.77;;;18.60;88.90;;;;;;5000020;28;20457;-53
2022/09/01 09:03:31;;;;;;;0.77;0.70;;;18.70;99.90;;;;;;5005380;28;20535;-54
2022/09/01 09:06:10;;;;;;;1.13;0.90;;;18.80;99.90;;;;;;5011052;28;20487;-55
2022/09/01 09:08:51;;;;;;;0.77;0.77;;;18.90;99.90;;;;;;5009198;28;20515;-54
2022/09/01 09:11:40;;;;;;;1.60;0.80;;;19.00;99.90;;;;;;4994204;28;20892;-53
2022/09/01 09:14:14;;;;;;;1.20;0.70;;;19.10;99.90;;;;;;4976932;28;20873;-53
2022/09/01 09:16:43;;;;;;;1.20;0.70;;;19.10;99.90;;;;;;4994744;28;20530;-56
2022/09/01 09:19:16;;;;;;;3.37;0.80;;;19.10;99.90;;;;;;4995494;28;20459;-54
2022/09/01 09:21:46;;;;;;;1.07;0.90;;;19.00;99.90;;;;;;4991967;28;20467;-54
2022/09/01 09:24:18;;;;;;;2.70;0.97;;;19.60;99.90;;;;;;4994825;28;20472;-53
2022/09/01 09:26:48;;;;;;;1.20;1.10;;;19.40;99.90;;;;;;5000105;28;20553;-57
2022/09/01 09:29:15;;;;;;;1.47;0.80;;;19.30;99.90;;;;;;4992969;28;21009;-54
2022/09/01 09:31:47;;;;;;;0.77;0.77;;;19.20;99.90;;;;;;4994539;28;20457;-54
2022/09/01 09:34:18;;;;;;;1.00;0.73;;;19.50;99.90;;;;;;4985286;28;20456;-54
2022/09/01 09:36:46;;;;;;;1.47;0.80;;;19.70;99.90;;;;;;4990154;28;20963;-54
2022/09/01 09:39:16;;;;;;;0.63;0.57;;;19.80;99.90;;;;;;4993013;28;20534;-54
2022/09/01 09:42:00;;;;;;;1.73;0.80;;;20.00;99.90;;;;;;4989433;28;20468;-53
2022/09/01 09:44:31;;;;;;;2.30;0.87;;;20.00;99.90;;;;;;4987986;28;20769;-53
2022/09/01 09:46:59;;;;;;;0.60;0.50;;;19.90;99.90;;;;;;4992203;28;20572;-53
2022/09/01 09:49:28;;;;;;;0.83;0.60;;;20.10;99.90;;;;;;4987823;28;20471;-55
2022/09/01 09:51:57;;;;;;;0.80;0.77;;;20.20;99.90;;;;;;4986846;28;21215;-53
2022/09/01 09:54:26;;;;;;;1.17;0.50;;;20.00;99.90;;;;;;4988919;28;20461;-53
2022/09/01 09:57:12;;;;;;;2.97;1.00;;;20.20;99.90;;;;;;4997659;28;20457;-53
2022/09/01 09:59:42;;;;;;;2.73;0.50;;;20.10;99.90;;;;;;4993157;28;21045;-53
2022/09/01 10:02:24;;;;;;;0.60;0.60;;;20.30;99.90;;;;;;4989947;28;21107;-53
2022/09/01 10:04:51;;;;;;;1.40;0.80;;;20.40;99.90;;;;;;4989228;28;20481;-54
2022/09/01 10:07:40;;;;;;;0.77;0.77;;;20.60;99.90;;;;;;4995127;28;20951;-53
2022/09/01 10:10:24;;;;;;;0.80;0.60;;;20.70;99.90;;;;;;4990949;28;20469;-54
2022/09/01 10:12:52;;;;;;;0.90;0.70;;;20.50;99.90;;;;;;4988430;28;20840;-54
2022/09/01 10:15:21;;;;;;;2.30;0.70;;;20.50;99.90;;;;;;4990257;28;20901;-53
2022/09/01 10:17:48;;;;;;;0.90;0.73;;;20.50;99.90;;;;;;4992715;28;20530;-53
2022/09/01 10:20:19;;;;;;;0.70;0.43;;;20.50;99.90;;;;;;4988223;28;20465;-53
2022/09/01 10:22:48;;;;;;;2.30;0.63;;;20.60;99.90;;;;;;4990097;28;20460;-53
2022/09/01 10:25:19;;;;;;;1.37;0.50;;;20.70;99.90;;;;;;4987378;28;20488;-53
2022/09/01 10:27:52;;;;;;;0.70;0.50;;;20.80;99.90;;;;;;4992505;28;20467;-53
2022/09/01 10:30:21;;;;;;;0.60;0.60;;;20.70;99.90;;;;;;4990972;28;20465;-54
2022/09/01 10:32:50;;;;;;;0.60;0.37;;;20.60;99.90;;;;;;4987541;28;20813;-54
2022/09/01 10:35:22;;;;;;;0.60;0.50;;;20.50;99.90;;;;;;4988368;28;20488;-52
2022/09/01 10:37:51;;;;;;;0.93;0.70;;;20.40;99.90;;;;;;4989080;28;20469;-53
2022/09/01 10:40:39;;;;;;;0.60;0.50;;;20.50;99.90;;;;;;4988867;28;20468;-53
2022/09/01 10:43:33;;;;;;;1.07;0.57;;;20.60;99.90;;;;;;4990299;28;20453;-53
2022/09/01 10:46:00;;;;;;;1.00;0.50;;;20.70;99.90;;;;;;4988841;28;20847;-52
2022/09/01 10:48:29;;;;;;;14.70;1.30;;;20.90;99.90;;;;;;4991982;28;20464;-52
2022/09/01 10:51:29;;;;;;;0.73;0.50;;;21.40;99.90;;;;;;4988786;28;20460;-53
2022/09/01 10:53:59;;;;;;;2.00;0.77;;;21.10;99.90;;;;;;5004439;23;20464;-53
2022/09/01 10:56:36;;;;;;;1.50;1.00;;;20.70;99.90;;;;;;4988957;28;20476;-53
2022/09/01 10:59:06;;;;;;;0.60;0.60;;;20.40;99.90;;;;;;4992328;28;20461;-53
2022/09/01 11:02:04;;;;;;;1.67;0.80;;;20.20;99.90;;;;;;4991198;28;20466;-53
2022/09/01 11:05:04;;;;;;;1.43;0.60;;;20.00;99.90;;;;;;4951497;28;20450;-53
2022/09/01 11:07:33;;;;;;;3.70;2.47;;;19.90;99.90;;;;;;4987446;28;20481;-53
2022/09/01 11:10:37;;;;;;;6.13;2.73;;;19.80;99.90;;;;;;4992312;28;20464;-53
2022/09/01 11:13:29;;;;;;;1.20;0.90;;;19.70;99.90;;;;;;4964079;28;20440;-52
2022/09/01 11:16:16;;;;;;;10.73;4.27;;;19.60;99.90;;;;;;4986652;28;22637;-52
2022/09/01 11:18:43;;;;;;;1.13;0.60;;;19.60;99.90;;;;;;4986202;28;20519;-54
2022/09/01 11:21:16;;;;;;;2.53;1.10;;;19.40;99.90;;;;;;4985825;28;20519;-54
2022/09/01 11:23:45;;;;;;;0.90;0.90;;;19.40;99.90;;;;;;4987266;28;20465;-54
2022/09/01 11:26:46;;;;;;;1.60;0.90;;;19.30;99.90;;;;;;4989048;28;20507;-50
2022/09/01 11:29:46;;;;;;;1.67;1.33;;;19.20;99.90;;;;;;4988099;28;20464;-50
2022/09/01 11:32:13;;;;;;;7.37;4.10;;;19.30;99.90;;;;;;4987769;28;20472;-49
2022/09/01 11:34:44;;;;;;;1.27;1.00;;;19.20;99.90;;;;;;4986558;28;20578;-50
2022/09/01 11:37:15;;;;;;;2.83;1.23;;;19.20;99.90;;;;;;4986706;28;20535;-50
2022/09/01 11:39:46;;;;;;;4.27;3.00;;;19.20;99.90;;;;;;4987772;28;20472;-50
2022/09/01 11:42:20;;;;;;;5.13;1.20;;;19.20;99.90;;;;;;4987555;28;20547;-49
2022/09/01 11:44:51;;;;;;;1.53;1.07;;;19.20;99.90;;;;;;4989554;28;20572;-49
2022/09/01 11:47:21;;;;;;;3.03;1.37;;;19.40;99.90;;;;;;4990160;28;20496;-50
2022/09/01 11:49:52;;;;;;;1.23;0.80;;;19.60;99.90;;;;;;4985945;28;20892;-50
2022/09/01 11:52:20;;;;;;;1.40;0.57;;;19.90;99.90;;;;;;4987054;28;20515;-49
2022/09/01 11:54:48;;;;;;;2.50;0.80;;;19.90;99.90;;;;;;4987585;28;20490;-56
2022/09/01 11:57:30;;;;;;;1.00;0.80;;;19.90;99.90;;;;;;4989367;28;20535;-49
2022/09/01 11:59:57;;;;;;;0.80;0.57;;;19.70;99.90;;;;;;4989336;28;20456;-49
2022/09/01 12:02:28;;;;;;;1.00;0.70;;;19.60;99.90;;;;;;4987170;28;20555;-49
2022/09/01 12:04:56;;;;;;;0.97;0.63;;;19.60;99.90;;;;;;4989947;28;20485;-50
2022/09/01 12:07:28;;;;;;;0.57;0.50;;;19.60;99.90;;;;;;4988516;28;20535;-49
2022/09/01 12:09:55;;;;;;;1.03;0.73;;;19.80;99.90;;;;;;4987327;28;20539;-50
2022/09/01 12:12:30;;;;;;;1.27;0.80;;;20.00;99.90;;;;;;4987665;28;20522;-51
2022/09/01 12:14:58;;;;;;;0.60;0.60;;;20.20;99.90;;;;;;4990424;28;20530;-49
2022/09/01 12:17:24;;;;;;;0.70;0.70;;;20.30;99.90;;;;;;4991099;28;20447;-49
2022/09/01 12:19:51;;;;;;;1.03;0.80;;;20.20;99.90;;;;;;4986755;28;20460;-50
2022/09/01 12:22:21;;;;;;;0.70;0.70;;;20.30;99.90;;;;;;4990450;28;20456;-49
2022/09/01 12:24:50;;;;;;;1.20;0.70;;;20.40;99.90;;;;;;4989480;28;20484;-50
2022/09/01 12:27:17;;;;;;;0.70;0.67;;;20.50;99.90;;;;;;4990205;28;21037;-50
2022/09/01 12:29:45;;;;;;;0.60;0.60;;;20.50;99.90;;;;;;4989238;28;20839;-50
2022/09/01 12:32:14;;;;;;;2.47;0.87;;;20.70;99.90;;;;;;4991564;28;20456;-50
2022/09/01 12:34:42;;;;;;;2.40;1.07;;;20.60;99.90;;;;;;4999618;28;20480;-49
2022/09/01 12:37:12;;;;;;;2.90;0.80;;;20.70;99.90;;;;;;4992141;28;20496;-49
2022/09/01 12:39:40;;;;;;;0.90;0.50;;;20.80;99.90;;;;;;4988473;28;20465;-49
2022/09/01 12:42:10;;;;;;;1.00;1.00;;;21.00;99.90;;;;;;4988439;28;20511;-49
2022/09/01 12:44:49;;;;;;;0.90;0.90;;;21.20;99.90;;;;;;4991244;28;20870;-50
2022/09/01 12:47:46;;;;;;;2.30;0.57;;;21.20;99.90;;;;;;4977766;28;20488;-50
2022/09/01 12:50:42;;;;;;;0.63;0.63;;;21.20;99.90;;;;;;4983681;28;20484;-50
2022/09/01 12:53:17;;;;;;;0.60;0.60;;;21.20;99.90;;;;;;4988720;28;20459;-50
2022/09/01 12:56:08;;;;;;;0.60;0.60;;;21.20;99.90;;;;;;4989963;28;20546;-50
2022/09/01 12:58:35;;;;;;;0.60;0.50;;;21.20;99.90;;;;;;4977779;28;20487;-50
2022/09/01 13:01:07;;;;;;;1.87;0.70;;;21.20;99.90;;;;;;4985593;28;20464;-50
2022/09/01 13:03:34;;;;;;;0.80;0.80;;;21.00;99.90;;;;;;4990659;28;20970;-50
2022/09/01 13:06:02;;;;;;;0.60;0.50;;;20.90;99.90;;;;;;4994783;28;20555;-50
2022/09/01 13:08:31;;;;;;;9.00;1.10;;;21.00;99.90;;;;;;4991230;28;20496;-49